Terminal Aerodrome Forecast
Issued by NWS

Home | Current Version | Previous Version | Text Only | Print | Product List | Glossary Off
Versions: 1 2 3 4 5 6 7 8 9 10 11 12 13 14 15 16 17 18

000
FTUS43 KMPX 260520
TAFAXN
TAF
KAXN 260520Z 2606/2706 06008KT 4SM BR OVC003
     FM261400 07011KT 6SM BR OVC005
     FM261700 08013G19KT P6SM OVC015
     FM270200 08012KT P6SM OVC040
      AMD NOT SKED=

USA.gov is the U.S. government's official web portal to all federal, state and local government web resources and services.